Metar Cercanos

 

LEPA - Palma De Mallorc, Spain
Distance from station: ONO 38km
Actualización: 26/05/2018 15:00
Few Clouds
Few Clouds
 Viento del SO
Viento: SO 20 km/h
Temperatura: 24°C
Rocío: 18°C
Humedad: 69%
Barómetro: 1013 hPa
Clouds: Few Clouds
Visibility: 10 km
Cloud details: Few Clouds 610 m
2018/05/26 13:00 LEPA 261300Z 23011KT 200V260 9999 FEW020 24/18 Q1013 NOSIG
LEMH - Mahon/Menorca Is, Spain
Distance from station: ENE 105km
Actualización: 26/05/2018 15:00
Despejado
Despejado
 Viento del ESE
Viento: ESE 31 km/h
Temperatura: 22°C
Rocío: 16°C
Humedad: 69%
Barómetro: 1015 hPa
Resumen: Despejado
Visibility: greater than 10 km
2018/05/26 13:00 LEMH 261300Z 12017KT CAVOK 22/16 Q1015
 
LEIB - Ibiza/Es Codola, Spain
Distance from station: OSO 165km
Actualización: 26/05/2018 15:00
Parcialmente nuboso
Parcialmente nuboso
 Viento del E
Viento: E 19 km/h
Temperatura: 22°C
Rocío: 17°C
Humedad: 73%
Barómetro: 1013 hPa
Clouds: Parcialmente nuboso
Visibility: 9 km
Cloud details: Few Clouds 457 m
Parcialmente nuboso 762 m
2018/05/26 13:00 LEIB 261300Z 08010KT 050V120 9000 FEW015 SCT025 22/17 Q1013 NOSIG
LEBL - Barcelona Airpor, Spain
Distance from station: NNO 225km
Actualización: 26/05/2018 15:00
Few Clouds
Few Clouds
 Viento del ENE
Viento: ENE 30 km/h
Temperatura: 22°C
Rocío: 15°C
Humedad: 65%
Barómetro: 1015 hPa
Clouds: Few Clouds
Visibility: 10 km
Cloud details: Few Clouds 914 m
2018/05/26 13:00 LEBL 261300Z 07016KT 9999 FEW030 22/15 Q1015 NOSIG
 
LEVC - Valencia (civ/Mi, Spain
Distance from station: NO 188km
Actualización: 26/05/2018 15:00
Muy nuboso
Muy nuboso
 Viento del E
Viento: E 20 km/h
Temperatura: 24°C
Rocío: 16°C
Humedad: 61%
Barómetro: 1013 hPa
Clouds: Muy nuboso
Visibility: 10 km
Cloud details: Muy nuboso 762 m
2018/05/26 13:00 LEVC 261300Z 09011KT 070V130 9999 BKN025 24/16 Q1013 NOSIG
LEGE - Gerona/Costa Bra, Spain
Distance from station: N 276km
Actualización: 26/05/2018 15:00
Few Clouds
Few Clouds
 Viento del SE
Viento: SE 20 km/h
Temperatura: 24°C
Rocío: 13°C
Humedad: 50%
Barómetro: 1016 hPa
Clouds: Few Clouds
Visibility: 10 km
Cloud details: Few Clouds 1219 m
2018/05/26 13:00 LEGE 261300Z 14011KT 110V180 9999 FEW040 24/13 Q1016
 
LEAL - Alicante/El Alte, Spain
Distance from station: OSO 344km
Actualización: 26/05/2018 15:00
Parcialmente nuboso
Parcialmente nuboso
 Viento del E
Viento: E 22 km/h
Temperatura: 22°C
Rocío: 17°C
Humedad: 73%
Barómetro: 1013 hPa
Clouds: Parcialmente nuboso
Visibility: 10 km
Cloud details: Few Clouds 305 m
Parcialmente nuboso 518 m
2018/05/26 13:00 LEAL 261300Z 08012KT 050V130 9999 FEW010 SCT017 22/17 Q1013 NOSIG
LEAM - Almeria Airport, Spain
Distance from station: SSO 56km
Actualización: 26/05/2018 15:00
Despejado
Despejado
 Viento del SO
Viento: SO 26 km/h
Temperatura: 23°C
Rocío: 14°C
Humedad: 57%
Barómetro: 1011 hPa
Resumen: Despejado
Visibility: greater than 10 km
2018/05/26 13:00 LEAM 261300Z 22014KT 190V250 CAVOK 23/14 Q1011
 
LEZG - Zaragoza (mil/Ci, Spain
Distance from station: NO 431km
Actualización: 26/05/2018 15:00
Nearby showers, Nearby thunderstorm, Parcialmente nuboso
Nearby showers, Nearby thunderstorm, Parcialmente nuboso
 Viento del ENE
Viento: ENE 6 km/h
Temperatura: 26°C
Rocío: 15°C
Humedad: 51%
Barómetro: 1012 hPa
Resumen: Nearby showers, Nearby thunderstorm
Clouds: Parcialmente nuboso
Visibility: 10 km
Cloud details: Few Clouds 1219 m
Few Clouds 1524 m
Parcialmente nuboso 2438 m
2018/05/26 13:00 LEZG 261300Z 07003KT 9999 VCSH VCTS FEW040 FEW050CB SCT080 26/15 Q1012
LEMD - Madrid/Barajas, Spain
Distance from station: ONO 234km
Actualización: 26/05/2018 15:00
Parcialmente nuboso
Parcialmente nuboso
 Viento del S
Viento: S 13 km/h
Temperatura: 21°C
Rocío: 9°C
Humedad: 46%
Barómetro: 1014 hPa
Clouds: Parcialmente nuboso
Visibility: 10 km
Cloud details: Few Clouds 1372 m
Parcialmente nuboso 2377 m
2018/05/26 13:00 LEMD 261300Z 18007KT 9999 FEW045 SCT078 21/09 Q1014 NOSIG
 
LEGR - Granada Airport, Spain
Distance from station: OSO 62km
Actualización: 26/05/2018 15:00
Parcialmente nuboso
Parcialmente nuboso
 Viento del ONO
Viento: ONO 9 km/h
Temperatura: 24°C
Rocío: 9°C
Humedad: 39%
Barómetro: 1013 hPa
Clouds: Parcialmente nuboso
Visibility: 10 km
Cloud details: Parcialmente nuboso 1524 m
2018/05/26 13:00 LEGR 261300Z 30005KT 230V360 9999 SCT050 24/09 Q1013
LEMG - Malaga (civ/Mil), Spain
Distance from station: OSO 227km
Actualización: 26/05/2018 15:00
Few Clouds
Few Clouds
 Viento del SE
Viento: SE 19 km/h
Temperatura: 24°C
Rocío: 13°C
Humedad: 50%
Barómetro: 1012 hPa
Clouds: Few Clouds
Visibility: 10 km
Cloud details: Few Clouds 1067 m
2018/05/26 13:00 LEMG 261300Z 13010KT 9999 FEW035 24/13 Q1012 NOSIG
 
LEZL - Sevilla (civ/Mil, Spain
Distance from station: S 318km
Actualización: 26/05/2018 15:00
Few Clouds
Few Clouds
 Viento del varies
Viento: varies 4 km/h
Temperatura: 22°C
Rocío: 13°C
Humedad: 57%
Barómetro: 1013 hPa
Clouds: Few Clouds
Visibility: 10 km
Cloud details: Few Clouds 1067 m
2018/05/26 13:00 LEZL 261300Z VRB02KT 9999 FEW035 22/13 Q1013 NOSIG
LEVT - Vitoria, Spain
Distance from station: NO 226km
Actualización: 26/05/2018 15:00
Light thunderstorm, Lluvia, Muy nuboso
Light thunderstorm, Lluvia, Muy nuboso
 Viento del OSO
Viento: OSO 9 km/h
Temperatura: 16°C
Rocío: 13°C
Humedad: 83%
Barómetro: 1013 hPa
Resumen: Light thunderstorm, Lluvia
Clouds: Muy nuboso
Visibility: 10 km
Cloud details: Few Clouds 610 m
Few Clouds 671 m
Muy nuboso 1676 m
2018/05/26 13:00 LEVT 261300Z 25005KT 200V300 9999 -TSRA FEW020 FEW022CB BKN055 16/13 Q1013
 
LEBB - Bilbao/Sondica, Spain
Distance from station: NNO 235km
Actualización: 26/05/2018 15:00
Parcialmente nuboso
Parcialmente nuboso
 Viento del SE
Viento: SE 7 km/h
Temperatura: 22°C
Rocío: 16°C
Humedad: 69%
Barómetro: 1011 hPa
Clouds: Parcialmente nuboso
Visibility: 10 km
Cloud details: Parcialmente nuboso 914 m
2018/05/26 13:00 LEBB 261300Z 14004KT 100V160 9999 SCT030CB 22/16 Q1011 TEMPO 3000 TSRA BKN030CB
LESO - San Sebastian/Fu, Spain
Distance from station: N 231km
Actualización: 26/05/2018 15:00
Despejado
Despejado
 Viento del E
Viento: E 9 km/h
Temperatura: 23°C
Rocío: 16°C
Humedad: 65%
Barómetro: 1011 hPa
Resumen: Despejado
Visibility: greater than 10 km
2018/05/26 13:00 LESO 261300Z 09005KT 040V130 CAVOK 23/16 Q1011
 
LEVD - Valladolid(Mil/C, Spain
Distance from station: ONO 239km
Actualización: 26/05/2018 15:00
Few Clouds
Few Clouds
 Viento del O
Viento: O 7 km/h
Temperatura: 16°C
Rocío: 8°C
Humedad: 59%
Barómetro: 1014 hPa
Clouds: Few Clouds
Visibility: 10 km
Cloud details: Parcialmente nuboso 914 m
Few Clouds 1067 m
2018/05/26 13:00 LEVD 261300Z 26004KT 180V320 9999 SCT030 FEW035CB 16/08 Q1014
LESA - Salamanca (civ/M, Spain
Distance from station: ONO 349km
Actualización: 26/05/2018 15:00
Parcialmente nuboso
Parcialmente nuboso
 Viento del O
Viento: O 11 km/h
Temperatura: 19°C
Rocío: 8°C
Humedad: 49%
Barómetro: 1014 hPa
Clouds: Parcialmente nuboso
Visibility: 10 km
Cloud details: Few Clouds 1219 m
Parcialmente nuboso 1402 m
2018/05/26 13:00 LESA 261300Z 26006KT 200V300 9999 FEW040 SCT046 19/08 Q1014
 
LEXJ - Santander/Paraya, Spain
Distance from station: NNO 247km
Actualización: 26/05/2018 15:17
Muy nuboso
Muy nuboso
 Viento del O
Viento: O 11 km/h
Temperatura: 17°C
Rocío: 17°C
Humedad: 100%
Barómetro: 1012 hPa
Clouds: Muy nuboso
Visibility: 10 km
Cloud details: Few Clouds 244 m
Muy nuboso 366 m
2018/05/26 13:17 LEXJ 261317Z 26006KT 190V300 9999 FEW008 BKN012 17/17 Q1012
LEAS - Asturias/Aviles, Spain
Distance from station: NO 214km
Actualización: 26/05/2018 15:21
Lluvia débil, Mist, Patches of, Niebla, Muy nuboso
Lluvia débil, Mist, Patches of, Niebla, Muy nuboso
 Viento del ONO
Viento: ONO 22 km/h
Temperatura: 14°C
Rocío: 14°C
Humedad: 100%
Barómetro: 1013 hPa
Resumen: Lluvia débil, Mist, Patches of, Niebla
Clouds: Muy nuboso
Visibility: 2 km
Cloud details: Parcialmente nuboso 30 m
Muy nuboso 61 m
Muy nuboso 152 m
2018/05/26 13:21 LEAS 261321Z 29012KT 260V320 1500 0700W R11/0750D R29/2000N -RA BR BCFG SCT001 BKN002 BKN005 14/14 Q1013 TEMPO 3000 BR BKN007
 
LECO - La Coruna/Alvedr, Spain
Distance from station: ONO 222km
Actualización: 26/05/2018 15:00
Mist, Nearby fog, Cubierto
Mist, Nearby fog, Cubierto
 Viento del N
Viento: N 13 km/h
Temperatura: 14°C
Rocío: 13°C
Humedad: 94%
Barómetro: 1015 hPa
Resumen: Mist, Nearby fog
Clouds: Cubierto
Visibility: 2 km
Cloud details: Cubierto 91 m
2018/05/26 13:00 LECO 261300Z 36007KT 320V060 2000 BR VCFG OVC003 14/13 Q1015 TEMPO 3000 BR
LEVX - Vigo/Peinador, Spain
Distance from station: O 214km
Actualización: 26/05/2018 15:00
Muy nuboso
Muy nuboso
 Viento del varies
Viento: varies 6 km/h
Temperatura: 19°C
Rocío: 14°C
Humedad: 73%
Barómetro: 1013 hPa
Clouds: Muy nuboso
Visibility: 10 km
Cloud details: Parcialmente nuboso 762 m
Muy nuboso 1036 m
2018/05/26 13:00 LEVX 261300Z VRB03KT 9999 SCT025 BKN034 19/14 Q1013 NOSIG